createdAt,value
2019-03-26T00:00:33.791Z,999.57
2019-03-26T00:01:33.920Z,999.53
2019-03-26T00:02:34.055Z,999.57
2019-03-26T00:03:34.195Z,999.62
2019-03-26T00:04:34.313Z,999.58
2019-03-26T00:05:34.443Z,999.60
2019-03-26T00:06:34.560Z,999.57
2019-03-26T00:07:34.706Z,999.62
2019-03-26T00:08:34.826Z,999.60
2019-03-26T00:09:34.952Z,999.63
2019-03-26T00:10:35.073Z,999.65
2019-03-26T00:11:35.208Z,999.63
2019-03-26T00:12:35.328Z,999.68
2019-03-26T00:13:35.461Z,999.63
2019-03-26T00:14:35.598Z,999.62
2019-03-26T00:15:35.720Z,999.64
2019-03-26T00:16:35.862Z,999.65
2019-03-26T00:17:36.011Z,999.68
2019-03-26T00:18:36.124Z,999.67
2019-03-26T00:19:36.289Z,999.66
2019-03-26T00:20:36.377Z,999.70
2019-03-26T00:21:36.530Z,999.74
2019-03-26T00:22:36.655Z,999.74
2019-03-26T00:23:36.780Z,999.77
2019-03-26T00:24:36.903Z,999.79
2019-03-26T00:25:37.053Z,999.76
2019-03-26T00:26:37.169Z,999.82
2019-03-26T00:27:37.293Z,999.79
2019-03-26T00:28:37.442Z,999.80
2019-03-26T00:29:37.570Z,999.80
2019-03-26T00:30:37.686Z,999.81
2019-03-26T00:31:37.817Z,999.75
2019-03-26T00:32:37.949Z,999.77
2019-03-26T00:33:38.067Z,999.78
2019-03-26T00:34:38.195Z,999.78
2019-03-26T00:35:38.354Z,999.75
2019-03-26T00:36:38.471Z,999.79
2019-03-26T00:37:38.602Z,999.81
2019-03-26T00:38:38.736Z,999.80
2019-03-26T00:39:38.885Z,999.83
2019-03-26T00:40:40.279Z,999.86
2019-03-26T00:41:39.130Z,999.84
2019-03-26T00:42:39.256Z,999.85
2019-03-26T00:43:39.437Z,999.84
2019-03-26T00:44:39.531Z,999.87
2019-03-26T00:45:39.661Z,999.86
2019-03-26T00:46:39.788Z,999.83
2019-03-26T00:47:39.931Z,999.82
2019-03-26T00:48:40.057Z,999.85
2019-03-26T00:49:40.184Z,999.86
2019-03-26T00:50:40.317Z,999.87
2019-03-26T00:51:40.458Z,999.91
2019-03-26T00:52:40.581Z,999.92
2019-03-26T00:53:40.707Z,999.97
2019-03-26T00:54:40.872Z,999.99
2019-03-26T00:55:40.995Z,999.99
2019-03-26T00:56:41.114Z,999.98
2019-03-26T00:57:41.247Z,999.96
2019-03-26T00:58:41.401Z,999.95
2019-03-26T00:59:41.527Z,999.92
2019-03-26T01:00:41.687Z,999.95
2019-03-26T01:01:41.786Z,999.94
2019-03-26T01:02:41.944Z,999.92
2019-03-26T01:03:42.057Z,999.97
2019-03-26T01:04:42.184Z,999.95
2019-03-26T01:05:42.313Z,999.98
2019-03-26T01:06:42.478Z,1000.05
2019-03-26T01:07:42.592Z,1000.01
2019-03-26T01:08:42.716Z,999.97
2019-03-26T01:09:42.859Z,1000.09
2019-03-26T01:10:42.983Z,1000.09
2019-03-26T01:11:43.119Z,1000.11
2019-03-26T01:12:43.234Z,1000.17
2019-03-26T01:13:43.367Z,1000.11
2019-03-26T01:14:43.495Z,1000.13
2019-03-26T01:15:43.619Z,1000.14
2019-03-26T01:16:43.751Z,1000.13
2019-03-26T01:17:43.870Z,1000.14
2019-03-26T01:18:43.996Z,1000.14
2019-03-26T01:19:44.117Z,1000.16
2019-03-26T01:20:44.244Z,1000.12
2019-03-26T01:21:44.379Z,1000.15
2019-03-26T01:22:44.515Z,1000.14
2019-03-26T01:23:44.635Z,1000.17
2019-03-26T01:24:44.760Z,1000.17
2019-03-26T01:25:44.880Z,1000.17
2019-03-26T01:26:45.005Z,1000.19
2019-03-26T01:27:45.136Z,1000.21
2019-03-26T01:28:45.263Z,1000.22
2019-03-26T01:29:45.397Z,1000.18
2019-03-26T01:30:45.517Z,1000.21
2019-03-26T01:31:45.658Z,1000.21
2019-03-26T01:32:45.772Z,1000.20
2019-03-26T01:33:45.904Z,1000.20
2019-03-26T01:34:46.491Z,1000.23
2019-03-26T01:35:46.174Z,1000.21
2019-03-26T01:36:46.293Z,1000.21
2019-03-26T01:37:46.421Z,1000.26
2019-03-26T01:38:46.553Z,1000.26
2019-03-26T01:39:46.678Z,1000.27
2019-03-26T01:40:46.807Z,1000.25
2019-03-26T01:41:46.939Z,1000.28
2019-03-26T01:42:47.067Z,1000.29
2019-03-26T01:43:47.208Z,1000.25
2019-03-26T01:44:47.325Z,1000.24
2019-03-26T01:45:47.461Z,1000.26
2019-03-26T01:46:47.578Z,1000.27
2019-03-26T01:47:47.706Z,1000.30
2019-03-26T01:48:47.838Z,1000.23
2019-03-26T01:49:47.962Z,1000.24
2019-03-26T01:50:48.096Z,1000.27
2019-03-26T01:51:48.239Z,1000.23
2019-03-26T01:52:48.360Z,1000.26
2019-03-26T01:53:48.489Z,1000.25
2019-03-26T01:54:48.633Z,1000.24
2019-03-26T01:55:48.793Z,1000.24
2019-03-26T01:56:48.865Z,1000.17
2019-03-26T01:57:49.010Z,1000.20
2019-03-26T01:58:49.119Z,1000.18
2019-03-26T01:59:49.254Z,1000.15
2019-03-26T02:00:49.386Z,1000.20
2019-03-26T02:01:49.505Z,1000.24
2019-03-26T02:02:49.628Z,1000.27
2019-03-26T02:03:49.839Z,1000.31
2019-03-26T02:04:59.758Z,1000.33
2019-03-26T02:05:50.000Z,1000.34
2019-03-26T02:06:50.123Z,1000.33
2019-03-26T02:07:50.251Z,1000.35
2019-03-26T02:08:50.378Z,1000.35
2019-03-26T02:09:50.502Z,1000.36
2019-03-26T02:10:50.629Z,1000.38
2019-03-26T02:11:50.768Z,1000.37
2019-03-26T02:12:50.884Z,1000.38
2019-03-26T02:13:51.011Z,1000.41
2019-03-26T02:14:51.139Z,1000.38
2019-03-26T02:15:51.259Z,1000.39
2019-03-26T02:16:51.388Z,1000.36
2019-03-26T02:17:51.515Z,1000.33
2019-03-26T02:18:51.642Z,1000.35
2019-03-26T02:19:51.854Z,1000.38
2019-03-26T02:20:51.918Z,1000.42
2019-03-26T02:21:52.049Z,1000.39
2019-03-26T02:22:52.168Z,1000.42
2019-03-26T02:23:52.297Z,1000.39
2019-03-26T02:24:52.431Z,1000.42
2019-03-26T02:25:52.550Z,1000.37
2019-03-26T02:26:52.673Z,1000.41
2019-03-26T02:27:52.796Z,1000.36
2019-03-26T02:28:52.930Z,1000.37
2019-03-26T02:29:53.061Z,1000.35
2019-03-26T02:30:53.182Z,1000.34
2019-03-26T02:31:53.307Z,1000.34
2019-03-26T02:32:53.443Z,1000.35
2019-03-26T02:33:53.560Z,1000.36
2019-03-26T02:34:53.702Z,1000.41
2019-03-26T02:35:53.830Z,1000.37
2019-03-26T02:36:53.955Z,1000.40
2019-03-26T02:37:54.087Z,1000.37
2019-03-26T02:38:54.208Z,1000.40
2019-03-26T02:39:54.334Z,1000.39
2019-03-26T02:40:54.461Z,1000.40
2019-03-26T02:41:54.585Z,1000.41
2019-03-26T02:42:54.718Z,1000.40
2019-03-26T02:43:54.841Z,1000.40
2019-03-26T02:44:54.966Z,1000.45
2019-03-26T02:45:55.090Z,1000.45
2019-03-26T02:46:55.226Z,1000.42
2019-03-26T02:47:55.358Z,1000.43
2019-03-26T02:48:55.475Z,1000.46
2019-03-26T02:49:55.606Z,1000.41
2019-03-26T02:50:55.726Z,1000.40
2019-03-26T02:51:55.855Z,1000.41
2019-03-26T02:52:55.989Z,1000.39
2019-03-26T02:53:56.120Z,1000.39
2019-03-26T02:54:56.244Z,1000.39
2019-03-26T02:55:56.365Z,1000.46
2019-03-26T02:56:56.500Z,1000.42
2019-03-26T02:57:56.622Z,1000.47
2019-03-26T02:58:56.749Z,1000.46
2019-03-26T02:59:56.878Z,1000.41
2019-03-26T03:00:57.006Z,1000.46
2019-03-26T03:01:57.152Z,1000.43
2019-03-26T03:02:57.254Z,1000.50
2019-03-26T03:03:57.388Z,1000.51
2019-03-26T03:04:57.512Z,1000.54
2019-03-26T03:05:57.643Z,1000.59
2019-03-26T03:06:57.774Z,1000.63
2019-03-26T03:07:57.893Z,1000.64
2019-03-26T03:08:58.026Z,1000.61
2019-03-26T03:09:58.147Z,1000.65
2019-03-26T03:10:58.274Z,1000.62
2019-03-26T03:11:58.403Z,1000.63
2019-03-26T03:12:58.527Z,1000.64
2019-03-26T03:13:58.670Z,1000.62
2019-03-26T03:14:58.782Z,1000.62
2019-03-26T03:15:58.901Z,1000.58
2019-03-26T03:16:59.044Z,1000.60
2019-03-26T03:17:59.170Z,1000.59
2019-03-26T03:18:59.299Z,1000.58
2019-03-26T03:19:59.430Z,1000.62
2019-03-26T03:20:59.554Z,1000.63
2019-03-26T03:21:59.679Z,1000.61
2019-03-26T03:22:59.882Z,1000.57
2019-03-26T03:23:59.933Z,1000.61
2019-03-26T03:25:00.228Z,1000.58
2019-03-26T03:26:00.186Z,1000.63
2019-03-26T03:27:00.319Z,1000.60
2019-03-26T03:28:00.449Z,1000.63
2019-03-26T03:29:00.580Z,1000.63
2019-03-26T03:30:00.723Z,1000.59
2019-03-26T03:31:00.837Z,1000.62
2019-03-26T03:32:00.962Z,1000.64
2019-03-26T03:33:01.086Z,1000.67
2019-03-26T03:34:01.214Z,1000.69
2019-03-26T03:35:01.375Z,1000.64
2019-03-26T03:36:01.470Z,1000.66
2019-03-26T03:37:01.594Z,1000.66
2019-03-26T03:38:01.720Z,1000.67
2019-03-26T03:39:01.869Z,1000.69
2019-03-26T03:40:02.062Z,1000.70
2019-03-26T03:41:02.140Z,1000.68
2019-03-26T03:42:02.271Z,1000.68
2019-03-26T03:43:02.392Z,1000.68
2019-03-26T03:44:02.529Z,1000.68
2019-03-26T03:45:02.652Z,1000.71
2019-03-26T03:46:02.795Z,1000.72
2019-03-26T03:47:02.906Z,1000.67
2019-03-26T03:48:03.040Z,1000.70
2019-03-26T03:49:03.153Z,1000.67
2019-03-26T03:50:03.276Z,1000.74
2019-03-26T03:51:03.471Z,1000.73
2019-03-26T03:52:03.564Z,1000.77
2019-03-26T03:53:03.677Z,1000.78
2019-03-26T03:54:03.799Z,1000.80
2019-03-26T03:55:03.925Z,1000.75
2019-03-26T03:56:04.081Z,1000.74
2019-03-26T03:57:04.204Z,1000.75
2019-03-26T03:58:04.339Z,1000.75
2019-03-26T03:59:04.458Z,1000.81
2019-03-26T04:00:04.614Z,1000.82
2019-03-26T04:01:04.725Z,1000.78
2019-03-26T04:02:04.917Z,1000.78
2019-03-26T04:03:05.011Z,1000.83
2019-03-26T04:04:05.125Z,1000.82
2019-03-26T04:05:05.259Z,1000.81
2019-03-26T04:06:09.539Z,1000.82
2019-03-26T04:07:05.532Z,1000.81
2019-03-26T04:08:05.674Z,1000.81
2019-03-26T04:09:05.803Z,1000.82
2019-03-26T04:10:05.925Z,1000.82
2019-03-26T04:11:06.068Z,1000.83
2019-03-26T04:12:06.177Z,1000.83
2019-03-26T04:13:06.307Z,1000.85
2019-03-26T04:14:06.435Z,1000.84
2019-03-26T04:15:06.589Z,1000.84
2019-03-26T04:16:06.710Z,1000.86
2019-03-26T04:17:06.833Z,1000.83
2019-03-26T04:18:06.980Z,1000.82
2019-03-26T04:19:07.093Z,1000.80
2019-03-26T04:20:07.226Z,1000.81
2019-03-26T04:21:07.354Z,1000.81
2019-03-26T04:22:07.500Z,1000.80
2019-03-26T04:23:07.625Z,1000.83
2019-03-26T04:24:07.761Z,1000.81
2019-03-26T04:25:07.883Z,1000.85
2019-03-26T04:26:08.029Z,1000.83
2019-03-26T04:27:08.155Z,1000.85
2019-03-26T04:28:08.313Z,1000.84
2019-03-26T04:29:08.452Z,1000.88
2019-03-26T04:30:08.573Z,1000.90
2019-03-26T04:31:08.701Z,1000.92
2019-03-26T04:32:08.828Z,1000.97
2019-03-26T04:33:08.980Z,1000.97
2019-03-26T04:34:09.094Z,1000.98
2019-03-26T04:35:09.228Z,1000.97
2019-03-26T04:36:24.669Z,1001.02
2019-03-26T04:37:09.491Z,1001.06
2019-03-26T04:38:09.616Z,1001.10
2019-03-26T04:39:09.744Z,1001.15
2019-03-26T04:40:09.871Z,1001.18
2019-03-26T04:41:10.024Z,1001.14
2019-03-26T04:42:10.154Z,1001.20
2019-03-26T04:43:10.283Z,1001.26
2019-03-26T04:44:10.406Z,1001.21
2019-03-26T04:45:10.534Z,1001.24
2019-03-26T04:46:10.649Z,1001.25
2019-03-26T04:47:10.780Z,1001.27
2019-03-26T04:48:10.910Z,1001.28
2019-03-26T04:49:11.073Z,1001.27
2019-03-26T04:50:11.187Z,1001.29
2019-03-26T04:51:11.331Z,1001.29
2019-03-26T04:52:11.440Z,1001.28
2019-03-26T04:53:11.576Z,1001.25
2019-03-26T04:54:11.693Z,1001.26
2019-03-26T04:55:11.815Z,1001.26
2019-03-26T04:56:11.952Z,1001.23
2019-03-26T04:57:12.095Z,1001.27
2019-03-26T04:58:12.221Z,1001.25
2019-03-26T04:59:12.353Z,1001.25
2019-03-26T05:00:12.478Z,1001.28
2019-03-26T05:01:12.605Z,1001.31
2019-03-26T05:02:12.728Z,1001.27
2019-03-26T05:03:12.857Z,1001.28
2019-03-26T05:04:12.985Z,1001.26
2019-03-26T05:05:13.115Z,1001.29
2019-03-26T05:06:13.234Z,1001.32
2019-03-26T05:07:13.375Z,1001.26
2019-03-26T05:08:13.492Z,1001.24
2019-03-26T05:09:13.670Z,1001.20
2019-03-26T05:10:13.796Z,1001.20
2019-03-26T05:11:13.932Z,1001.18
2019-03-26T05:12:14.050Z,1001.17
2019-03-26T05:13:14.186Z,1001.17
2019-03-26T05:14:14.310Z,1001.19
2019-03-26T05:15:14.440Z,1001.21
2019-03-26T05:16:14.564Z,1001.20
2019-03-26T05:17:14.723Z,1001.18
2019-03-26T05:18:14.856Z,1001.20
2019-03-26T05:19:14.977Z,1001.19
2019-03-26T05:20:15.100Z,1001.17
2019-03-26T05:21:15.249Z,1001.20
2019-03-26T05:22:24.012Z,1001.23
2019-03-26T05:23:15.498Z,1001.20
2019-03-26T05:24:15.637Z,1001.16
2019-03-26T05:25:15.761Z,1001.17
2019-03-26T05:26:15.889Z,1001.16
2019-03-26T05:27:16.034Z,1001.15
2019-03-26T05:28:16.157Z,1001.15
2019-03-26T05:29:16.299Z,1001.16
2019-03-26T05:30:16.419Z,1001.18
2019-03-26T05:31:16.551Z,1001.18
2019-03-26T05:32:16.670Z,1001.19
2019-03-26T05:33:16.824Z,1001.20
2019-03-26T05:34:16.956Z,1001.19
2019-03-26T05:35:17.080Z,1001.23
2019-03-26T05:36:17.231Z,1001.29
2019-03-26T05:37:17.368Z,1001.27
2019-03-26T05:38:17.488Z,1001.26
2019-03-26T05:39:17.615Z,1001.26
2019-03-26T05:40:17.778Z,1001.30
2019-03-26T05:41:17.902Z,1001.26
2019-03-26T05:42:18.037Z,1001.31
2019-03-26T05:43:18.162Z,1001.27
2019-03-26T05:44:18.305Z,1001.28
2019-03-26T05:45:18.430Z,1001.31
2019-03-26T05:46:18.554Z,1001.28
2019-03-26T05:47:18.685Z,1001.28
2019-03-26T05:48:18.833Z,1001.31
2019-03-26T05:49:18.963Z,1001.29
2019-03-26T05:50:19.097Z,1001.27
2019-03-26T05:51:19.226Z,1001.21
2019-03-26T05:52:19.385Z,1001.19
2019-03-26T05:53:19.498Z,1001.16
2019-03-26T05:54:19.623Z,1001.23
2019-03-26T05:55:19.758Z,1001.19
2019-03-26T05:56:19.905Z,1001.19
2019-03-26T05:57:20.031Z,1001.18
2019-03-26T05:58:20.156Z,1001.17
2019-03-26T05:59:20.276Z,1001.18
2019-03-26T06:00:20.458Z,1001.14
2019-03-26T06:01:20.551Z,1001.20
2019-03-26T06:02:20.688Z,1001.21
2019-03-26T06:03:20.810Z,1001.27
2019-03-26T06:04:20.966Z,1001.34
2019-03-26T06:05:21.079Z,1001.33
2019-03-26T06:06:21.216Z,1001.31
2019-03-26T06:07:21.349Z,1001.29
2019-03-26T06:08:21.497Z,1001.31
2019-03-26T06:09:21.624Z,1001.35
2019-03-26T06:10:21.737Z,1001.39
2019-03-26T06:11:21.872Z,1001.37
2019-03-26T06:12:22.002Z,1001.39
2019-03-26T06:13:22.122Z,1001.42
2019-03-26T06:14:22.249Z,1001.51
2019-03-26T06:15:22.375Z,1001.49
2019-03-26T06:16:22.587Z,1001.52
2019-03-26T06:17:22.583Z,1001.51
2019-03-26T06:18:22.723Z,1001.53
2019-03-26T06:19:22.843Z,1001.53
2019-03-26T06:20:22.987Z,1001.55
2019-03-26T06:21:23.110Z,1001.58
2019-03-26T06:22:23.285Z,1001.59
2019-03-26T06:23:23.354Z,1001.64
2019-03-26T06:24:23.482Z,1001.61
2019-03-26T06:25:23.611Z,1001.64
2019-03-26T06:26:23.736Z,1001.62
2019-03-26T06:27:23.863Z,1001.58
2019-03-26T06:28:23.992Z,1001.56
2019-03-26T06:29:24.130Z,1001.55
2019-03-26T06:30:24.257Z,1001.53
2019-03-26T06:31:24.396Z,1001.50
2019-03-26T06:32:24.512Z,1001.48
2019-03-26T06:33:24.650Z,1001.50
2019-03-26T06:34:24.764Z,1001.51
2019-03-26T06:35:24.923Z,1001.45
2019-03-26T06:36:25.040Z,1001.47
2019-03-26T06:37:25.168Z,1001.43
2019-03-26T06:38:25.298Z,1001.43
2019-03-26T06:39:25.444Z,1001.43
2019-03-26T06:40:25.567Z,1001.39
2019-03-26T06:41:25.737Z,1001.46
2019-03-26T06:42:25.836Z,1001.43
2019-03-26T06:43:25.957Z,1001.49
2019-03-26T06:44:26.091Z,1001.55
2019-03-26T06:45:26.222Z,1001.53
2019-03-26T06:46:26.348Z,1001.55
2019-03-26T06:47:26.469Z,1001.58
2019-03-26T06:48:26.628Z,1001.61
2019-03-26T06:49:26.741Z,1001.65
2019-03-26T06:50:26.878Z,1001.67
2019-03-26T06:51:27.003Z,1001.70
2019-03-26T06:52:27.128Z,1001.73
2019-03-26T06:53:27.258Z,1001.72
2019-03-26T06:54:27.387Z,1001.80
2019-03-26T06:55:27.542Z,1001.79
2019-03-26T06:56:27.661Z,1001.79
2019-03-26T06:57:35.407Z,1001.77
2019-03-26T06:58:27.920Z,1001.73
2019-03-26T06:59:28.058Z,1001.71
2019-03-26T07:00:28.175Z,1001.69
2019-03-26T07:01:28.304Z,1001.68
2019-03-26T07:02:28.481Z,1001.67
2019-03-26T07:03:28.573Z,1001.70
2019-03-26T07:04:28.705Z,1001.71
2019-03-26T07:05:28.827Z,1001.70
2019-03-26T07:06:28.954Z,1001.75
2019-03-26T07:07:31.704Z,1001.72
2019-03-26T07:08:29.210Z,1001.71
2019-03-26T07:09:29.328Z,1001.83
2019-03-26T07:10:29.459Z,1001.84
2019-03-26T07:11:29.592Z,1001.80
2019-03-26T07:12:29.731Z,1001.81
2019-03-26T07:13:29.859Z,1001.81
2019-03-26T07:14:29.990Z,1001.85
2019-03-26T07:15:30.116Z,1001.89
2019-03-26T07:16:30.244Z,1001.93
2019-03-26T07:17:30.370Z,1001.90
2019-03-26T07:18:30.558Z,1001.90
2019-03-26T07:19:30.630Z,1001.88
2019-03-26T07:20:30.749Z,1001.94
2019-03-26T07:21:30.884Z,1001.91
2019-03-26T07:22:31.012Z,1001.98
2019-03-26T07:23:31.215Z,1001.96
2019-03-26T07:24:31.280Z,1002.01
2019-03-26T07:25:31.407Z,1002.07
2019-03-26T07:26:31.541Z,1002.08
2019-03-26T07:27:31.658Z,1002.07
2019-03-26T07:28:31.786Z,1002.13
2019-03-26T07:29:31.910Z,1002.16
2019-03-26T07:30:32.035Z,1002.16
2019-03-26T07:31:32.159Z,1002.21
2019-03-26T07:32:32.282Z,1002.14
2019-03-26T07:33:32.410Z,1002.10
2019-03-26T07:34:32.528Z,1002.11
2019-03-26T07:35:32.660Z,1002.02
2019-03-26T07:36:32.785Z,1002.13
2019-03-26T07:37:44.647Z,1002.02
2019-03-26T07:38:33.028Z,1002.07
2019-03-26T07:39:33.162Z,1002.05
2019-03-26T07:40:33.293Z,1002.03
2019-03-26T07:41:33.421Z,1002.11
2019-03-26T07:42:33.553Z,1002.13
2019-03-26T07:43:33.668Z,1002.08
2019-03-26T07:44:33.799Z,1002.15
2019-03-26T07:45:33.927Z,1002.15
2019-03-26T07:46:34.053Z,1002.16
2019-03-26T07:47:34.179Z,1002.13
2019-03-26T07:48:34.305Z,1002.15
2019-03-26T07:49:34.435Z,1002.22
2019-03-26T07:50:34.563Z,1002.18
2019-03-26T07:51:34.705Z,1002.18
2019-03-26T07:52:34.821Z,1002.18
2019-03-26T07:53:34.954Z,1002.18
2019-03-26T07:54:35.074Z,1002.11
2019-03-26T07:55:35.200Z,1002.17
2019-03-26T07:56:35.333Z,1002.17
2019-03-26T07:57:35.460Z,1002.18
2019-03-26T07:58:35.577Z,1002.17
2019-03-26T07:59:35.708Z,1002.13
2019-03-26T08:00:35.835Z,1002.12
2019-03-26T08:01:35.964Z,1002.15
2019-03-26T08:02:36.091Z,1002.18
2019-03-26T08:03:36.217Z,1002.18
2019-03-26T08:04:36.346Z,1002.19
2019-03-26T08:05:36.476Z,1002.23
2019-03-26T08:06:36.614Z,1002.19
2019-03-26T08:07:36.746Z,1002.19
2019-03-26T08:08:36.889Z,1002.18
2019-03-26T08:09:37.149Z,1002.21
2019-03-26T08:10:37.140Z,1002.22
2019-03-26T08:11:37.268Z,1002.14
2019-03-26T08:12:37.397Z,1002.22
2019-03-26T08:13:37.568Z,1002.20
2019-03-26T08:14:37.712Z,1002.23
2019-03-26T08:15:37.812Z,1002.22
2019-03-26T08:16:37.933Z,1002.17
2019-03-26T08:17:38.095Z,1002.27
2019-03-26T08:18:38.189Z,1002.23
2019-03-26T08:19:38.317Z,1002.24
2019-03-26T08:20:38.443Z,1002.23
2019-03-26T08:21:38.571Z,1002.26
2019-03-26T08:22:38.772Z,1002.25
2019-03-26T08:23:38.835Z,1002.23
2019-03-26T08:24:38.955Z,1002.32
2019-03-26T08:25:39.084Z,1002.31
2019-03-26T08:26:39.214Z,1002.40
2019-03-26T08:27:39.352Z,1002.39
2019-03-26T08:28:39.467Z,1002.33
2019-03-26T08:29:39.595Z,1002.41
2019-03-26T08:30:39.727Z,1002.33
2019-03-26T08:31:39.855Z,1002.35
2019-03-26T08:32:40.004Z,1002.39
2019-03-26T08:33:40.129Z,1002.43
2019-03-26T08:34:40.255Z,1002.42
2019-03-26T08:35:40.388Z,1002.46
2019-03-26T08:36:40.524Z,1002.48
2019-03-26T08:37:40.630Z,1002.53
2019-03-26T08:38:40.758Z,1002.57
2019-03-26T08:39:40.890Z,1002.62
2019-03-26T08:40:41.043Z,1002.60
2019-03-26T08:41:41.173Z,1002.61
2019-03-26T08:42:41.298Z,1002.57
2019-03-26T08:43:41.450Z,1002.60
2019-03-26T08:44:41.571Z,1002.60
2019-03-26T08:45:41.701Z,1002.57
2019-03-26T08:46:41.835Z,1002.50
2019-03-26T08:47:41.981Z,1002.53
2019-03-26T08:48:42.101Z,1002.60
2019-03-26T08:49:42.227Z,1002.58
2019-03-26T08:50:42.348Z,1002.59
2019-03-26T08:51:42.483Z,1002.67
2019-03-26T08:52:42.616Z,1002.67
2019-03-26T08:53:42.741Z,1002.71
2019-03-26T08:54:42.864Z,1002.69
2019-03-26T08:55:43.004Z,1002.72
2019-03-26T08:56:43.136Z,1002.73
2019-03-26T08:57:43.258Z,1002.77
2019-03-26T08:58:43.419Z,1002.81
2019-03-26T08:59:43.566Z,1002.77
2019-03-26T09:00:43.720Z,1002.78
2019-03-26T09:01:43.795Z,1002.77
2019-03-26T09:02:43.933Z,1002.85
2019-03-26T09:03:44.101Z,1002.82
2019-03-26T09:04:44.194Z,1002.86
2019-03-26T09:05:44.320Z,1002.83
2019-03-26T09:06:44.450Z,1002.84
2019-03-26T09:07:44.603Z,1002.85
2019-03-26T09:08:44.739Z,1002.86
2019-03-26T09:09:44.851Z,1002.87
2019-03-26T09:10:51.720Z,1002.87
2019-03-26T09:11:45.115Z,1002.81
2019-03-26T09:12:45.243Z,1002.82
2019-03-26T09:13:45.370Z,1002.80
2019-03-26T09:14:45.503Z,1002.77
2019-03-26T09:15:45.634Z,1002.79
2019-03-26T09:16:45.739Z,1002.78
2019-03-26T09:17:45.872Z,1002.81
2019-03-26T09:18:45.996Z,1002.79
2019-03-26T09:19:46.122Z,1002.80
2019-03-26T09:20:46.250Z,1002.84
2019-03-26T09:21:46.375Z,1002.78
2019-03-26T09:22:46.508Z,1002.80
2019-03-26T09:23:46.636Z,1002.78
2019-03-26T09:24:46.755Z,1002.77
2019-03-26T09:25:46.886Z,1002.82
2019-03-26T09:26:47.018Z,1002.76
2019-03-26T09:27:47.139Z,1002.80
2019-03-26T09:28:47.970Z,1002.80
2019-03-26T09:29:47.388Z,1002.82
2019-03-26T09:30:47.515Z,1002.81
2019-03-26T09:31:47.643Z,1002.81
2019-03-26T09:32:47.771Z,1002.85
2019-03-26T09:33:47.901Z,1002.82
2019-03-26T09:34:48.027Z,1002.85
2019-03-26T09:35:48.171Z,1002.85
2019-03-26T09:36:48.279Z,1002.81
2019-03-26T09:37:48.407Z,1002.79
2019-03-26T09:38:48.539Z,1002.79
2019-03-26T09:39:48.671Z,1002.80
2019-03-26T09:40:48.815Z,1002.81
2019-03-26T09:41:48.952Z,1002.84
2019-03-26T09:42:49.086Z,1002.89
2019-03-26T09:43:49.209Z,1002.87
2019-03-26T09:44:49.340Z,1002.90
2019-03-26T09:45:49.463Z,1002.96
2019-03-26T09:46:49.596Z,1002.95
2019-03-26T09:47:49.723Z,1002.92
2019-03-26T09:48:49.865Z,1002.98
2019-03-26T09:49:49.982Z,1002.97
2019-03-26T09:50:50.108Z,1002.92
2019-03-26T09:51:50.250Z,1002.91
2019-03-26T09:52:50.372Z,1002.90
2019-03-26T09:53:50.512Z,1002.84
2019-03-26T09:54:50.626Z,1002.84
2019-03-26T09:55:50.755Z,1002.85
2019-03-26T09:56:50.885Z,1002.85
2019-03-26T09:57:51.015Z,1002.80
2019-03-26T09:58:51.144Z,1002.75
2019-03-26T09:59:51.270Z,1002.80
2019-03-26T10:00:51.571Z,1002.79
2019-03-26T10:01:51.530Z,1002.74
2019-03-26T10:02:51.652Z,1002.69
2019-03-26T10:03:51.780Z,1002.59
2019-03-26T10:04:51.903Z,1002.66
2019-03-26T10:05:52.028Z,1002.57
2019-03-26T10:06:52.157Z,1002.61
2019-03-26T10:07:52.311Z,1002.55
2019-03-26T10:08:53.034Z,1002.54
2019-03-26T10:09:52.572Z,1002.50
2019-03-26T10:10:52.730Z,1002.44
2019-03-26T10:11:52.842Z,1002.36
2019-03-26T10:12:52.974Z,1002.35
2019-03-26T10:13:53.125Z,1002.29
2019-03-26T10:14:53.262Z,1002.30
2019-03-26T10:15:53.378Z,1002.28
2019-03-26T10:16:53.507Z,1002.28
2019-03-26T10:17:53.650Z,1002.32
2019-03-26T10:18:53.770Z,1002.24
2019-03-26T10:19:53.898Z,1002.25
2019-03-26T10:20:54.029Z,1002.25
2019-03-26T10:21:54.273Z,1002.19
2019-03-26T10:22:54.291Z,1002.18
2019-03-26T10:23:54.444Z,1002.23
2019-03-26T10:24:54.549Z,1002.18
2019-03-26T10:25:54.686Z,1002.07
2019-03-26T10:26:54.803Z,1002.16
2019-03-26T10:27:54.934Z,1002.09
2019-03-26T10:28:55.066Z,1002.07
2019-03-26T10:29:55.190Z,1002.12
2019-03-26T10:30:55.330Z,1002.07
2019-03-26T10:31:55.469Z,1002.03
2019-03-26T10:32:55.600Z,1002.17
2019-03-26T10:33:55.732Z,1002.14
2019-03-26T10:34:55.858Z,1002.18
2019-03-26T10:35:56.013Z,1002.14
2019-03-26T10:36:56.131Z,1002.17
2019-03-26T10:37:56.272Z,1002.27
2019-03-26T10:39:05.508Z,1002.10
2019-03-26T10:39:56.567Z,1002.13
2019-03-26T10:40:56.747Z,1002.08
2019-03-26T10:41:56.869Z,1002.04
2019-03-26T10:42:57.001Z,1002.07
2019-03-26T10:43:57.130Z,1002.04
2019-03-26T10:44:57.262Z,1002.04
2019-03-26T10:45:57.392Z,1002.11
2019-03-26T10:46:57.520Z,1002.07
2019-03-26T10:47:57.658Z,1002.02
2019-03-26T10:48:57.789Z,1002.06
2019-03-26T10:49:57.910Z,1002.10
2019-03-26T10:50:58.042Z,1002.09
2019-03-26T10:51:58.166Z,1002.06
2019-03-26T10:52:58.313Z,1002.07
2019-03-26T10:53:58.433Z,1002.03
2019-03-26T10:54:58.576Z,1002.19
2019-03-26T10:55:58.700Z,1002.07
2019-03-26T10:56:58.830Z,1002.11
2019-03-26T10:57:58.964Z,1002.14
2019-03-26T10:58:59.096Z,1002.00
2019-03-26T10:59:59.238Z,1002.03
2019-03-26T11:00:59.363Z,1002.05
2019-03-26T11:01:59.988Z,1001.95
2019-03-26T11:02:59.620Z,1001.90
2019-03-26T11:03:59.760Z,1001.93
2019-03-26T11:04:59.895Z,1001.95
2019-03-26T11:06:00.024Z,1001.85
2019-03-26T11:07:00.161Z,1001.87
2019-03-26T11:08:00.300Z,1001.87
2019-03-26T11:09:00.423Z,1001.88
2019-03-26T11:10:00.581Z,1001.83
2019-03-26T11:11:00.680Z,1001.89
2019-03-26T11:12:00.812Z,1001.92
2019-03-26T11:13:00.942Z,1001.90
2019-03-26T11:14:01.074Z,1001.81
2019-03-26T11:15:01.204Z,1001.88
2019-03-26T11:16:01.327Z,1001.77
2019-03-26T11:17:01.457Z,1001.85
2019-03-26T11:18:01.590Z,1001.86
2019-03-26T11:19:01.714Z,1001.88
2019-03-26T11:20:01.855Z,1001.91
2019-03-26T11:21:03.220Z,1001.87
2019-03-26T11:22:02.108Z,1001.82
2019-03-26T11:23:02.242Z,1001.83
2019-03-26T11:24:02.370Z,1001.81
2019-03-26T11:25:02.500Z,1001.81
2019-03-26T11:26:02.630Z,1001.78
2019-03-26T11:27:02.751Z,1001.87
2019-03-26T11:28:02.877Z,1001.93
2019-03-26T11:29:03.007Z,1001.98
2019-03-26T11:30:03.125Z,1001.94
2019-03-26T11:31:03.267Z,1001.89
2019-03-26T11:32:03.387Z,1001.90
2019-03-26T11:33:03.517Z,1001.91
2019-03-26T11:34:03.660Z,1001.87
2019-03-26T11:35:03.799Z,1001.83
2019-03-26T11:36:03.923Z,1001.94
2019-03-26T11:37:04.055Z,1001.86
2019-03-26T11:38:04.189Z,1001.68
2019-03-26T11:39:04.320Z,1001.75
2019-03-26T11:40:04.456Z,1001.73
2019-03-26T11:41:04.654Z,1001.71
2019-03-26T11:42:04.731Z,1001.71
2019-03-26T11:43:04.855Z,1001.71
2019-03-26T11:44:05.174Z,1001.74
2019-03-26T11:45:05.123Z,1001.76
2019-03-26T11:46:05.245Z,1001.77
2019-03-26T11:47:05.375Z,1001.81
2019-03-26T11:48:05.505Z,1001.80
2019-03-26T11:49:05.625Z,1001.78
2019-03-26T11:50:05.776Z,1001.78
2019-03-26T11:51:05.915Z,1001.87
2019-03-26T11:52:06.052Z,1001.83
2019-03-26T11:53:06.179Z,1001.81
2019-03-26T11:54:06.307Z,1001.73
2019-03-26T11:55:06.443Z,1001.75
2019-03-26T11:56:06.585Z,1001.73
2019-03-26T11:57:06.710Z,1001.75
2019-03-26T11:58:06.846Z,1001.76
2019-03-26T11:59:06.970Z,1001.73
2019-03-26T12:00:07.106Z,1001.76
2019-03-26T12:01:07.242Z,1001.74
2019-03-26T12:02:07.373Z,1001.73
2019-03-26T12:03:07.504Z,1001.70
2019-03-26T12:04:07.670Z,1001.68
2019-03-26T12:05:07.767Z,1001.76
2019-03-26T12:06:07.907Z,1001.72
2019-03-26T12:07:08.029Z,1001.70
2019-03-26T12:08:08.166Z,1001.75
2019-03-26T12:09:08.291Z,1001.69